FDX1690 KMEM-KMIA
Flight info
| Callsign | FDX1690 |
|---|---|
| Flight time | 1h 47m |
| Altitude | 35000 |
| Route | PIEPE6 IBUFY JMUCK J14 VUZ J41 MGM CTY RSW PALMZ2 |
| Aircraft | B77L/H-SDE1E2E3FGHIJ2J3J4J5M1RWXY/LB1D1 |
Departure
| Time | 2026-05-04 14:00 |
|---|---|
| Airport | Memphis International Airport (KMEM) |
Arrival
| Time | 2026-05-04 15:48 |
|---|---|
| Airport | Miami International Airport (KMIA) |
| Time | Latitude | Longitude | Altitude | Speed | Heading |
|---|---|---|---|---|---|
| 2026-05-04 13:26 | 35.06099 | -89.96174 | 335 ft | 0 kts | 1° |
| 2026-05-04 13:51 | 35.06097 | -89.96174 | 335 ft | 2 kts | 1° |
| 2026-05-04 13:51 | 35.06071 | -89.96175 | 330 ft | 3 kts | 2° |
| 2026-05-04 13:51 | 35.06048 | -89.96173 | 330 ft | 4 kts | 324° |
| 2026-05-04 13:51 | 35.06039 | -89.96150 | 330 ft | 4 kts | 269° |
| 2026-05-04 13:52 | 35.06039 | -89.96132 | 330 ft | 1 kts | 272° |
| 2026-05-04 13:55 | 35.06040 | -89.96184 | 335 ft | 9 kts | 272° |
| 2026-05-04 13:55 | 35.06043 | -89.96292 | 335 ft | 16 kts | 271° |
| 2026-05-04 13:56 | 35.06046 | -89.96426 | 335 ft | 14 kts | 267° |
| 2026-05-04 13:56 | 35.05975 | -89.96529 | 331 ft | 19 kts | 214° |
| 2026-05-04 13:56 | 35.05923 | -89.96834 | 331 ft | 12 kts | 270° |
| 2026-05-04 13:57 | 35.05874 | -89.96909 | 329 ft | 12 kts | 198° |
| 2026-05-04 13:57 | 35.05783 | -89.96922 | 330 ft | 14 kts | 187° |
| 2026-05-04 13:58 | 35.05657 | -89.97162 | 332 ft | 14 kts | 269° |
| 2026-05-04 13:58 | 35.05643 | -89.97262 | 331 ft | 2 kts | 234° |
| 2026-05-04 13:58 | 35.05613 | -89.97294 | 330 ft | 11 kts | 218° |
| 2026-05-04 13:59 | 35.05551 | -89.97389 | 329 ft | 18 kts | 236° |
| 2026-05-04 13:59 | 35.05473 | -89.97529 | 329 ft | 11 kts | 231° |
| 2026-05-04 13:59 | 35.05244 | -89.97612 | 324 ft | 30 kts | 179° |
| 2026-05-04 14:00 | 35.04814 | -89.97604 | 325 ft | 94 kts | 179° |
| 2026-05-04 14:00 | 35.02853 | -89.97573 | 641 ft | 160 kts | 180° |
| 2026-05-04 14:00 | 35.01725 | -89.97536 | 1118 ft | 165 kts | 183° |
| 2026-05-04 14:01 | 35.00579 | -89.97514 | 1707 ft | 161 kts | 189° |
| 2026-05-04 14:01 | 34.99433 | -89.97506 | 2162 ft | 173 kts | 187° |
| 2026-05-04 14:01 | 34.96672 | -89.97458 | 2606 ft | 224 kts | 185° |
| 2026-05-04 14:02 | 34.95055 | -89.97416 | 3071 ft | 237 kts | 185° |
| 2026-05-04 14:02 | 34.93362 | -89.97375 | 3588 ft | 250 kts | 184° |
| 2026-05-04 14:02 | 34.91598 | -89.97333 | 4219 ft | 258 kts | 184° |
| 2026-05-04 14:02 | 34.89813 | -89.97294 | 4959 ft | 262 kts | 183° |
| 2026-05-04 14:03 | 34.87982 | -89.97253 | 5744 ft | 263 kts | 182° |
| 2026-05-04 14:03 | 34.86163 | -89.97342 | 6579 ft | 262 kts | 187° |
| 2026-05-04 14:03 | 34.84336 | -89.97533 | 7294 ft | 265 kts | 187° |
| 2026-05-04 14:03 | 34.82487 | -89.97739 | 7979 ft | 269 kts | 187° |
| 2026-05-04 14:04 | 34.78731 | -89.98145 | 9435 ft | 274 kts | 187° |
| 2026-05-04 14:04 | 34.76824 | -89.98341 | 10132 ft | 277 kts | 187° |
| 2026-05-04 14:04 | 34.74857 | -89.98541 | 10503 ft | 294 kts | 186° |
| 2026-05-04 14:05 | 34.70456 | -89.98991 | 10848 ft | 341 kts | 187° |
| 2026-05-04 14:05 | 34.68098 | -89.99570 | 11165 ft | 352 kts | 198° |
| 2026-05-04 14:05 | 34.65761 | -90.00586 | 11802 ft | 361 kts | 202° |
| 2026-05-04 14:06 | 34.63416 | -90.01724 | 12642 ft | 365 kts | 203° |
| 2026-05-04 14:06 | 34.61042 | -90.02861 | 13529 ft | 369 kts | 203° |
| 2026-05-04 14:06 | 34.58626 | -90.03984 | 14290 ft | 375 kts | 202° |
| 2026-05-04 14:06 | 34.56169 | -90.05097 | 15066 ft | 379 kts | 202° |
| 2026-05-04 14:07 | 34.53682 | -90.06208 | 15867 ft | 382 kts | 202° |
| 2026-05-04 14:07 | 34.51176 | -90.07319 | 16647 ft | 386 kts | 202° |
| 2026-05-04 14:07 | 34.48636 | -90.08442 | 17397 ft | 390 kts | 202° |
| 2026-05-04 14:07 | 34.46048 | -90.09501 | 18112 ft | 395 kts | 197° |
| 2026-05-04 14:08 | 34.43299 | -90.10015 | 18687 ft | 405 kts | 188° |
| 2026-05-04 14:08 | 34.40473 | -90.10279 | 19320 ft | 409 kts | 188° |
| 2026-05-04 14:08 | 34.37627 | -90.10575 | 19979 ft | 412 kts | 189° |
| 2026-05-04 14:08 | 34.34763 | -90.10926 | 20611 ft | 415 kts | 190° |
| 2026-05-04 14:09 | 34.28958 | -90.11717 | 21841 ft | 424 kts | 191° |
| 2026-05-04 14:09 | 34.26050 | -90.12115 | 22443 ft | 428 kts | 191° |
| 2026-05-04 14:10 | 34.20055 | -90.12523 | 23413 ft | 446 kts | 174° |
| 2026-05-04 14:10 | 34.17078 | -90.11258 | 23826 ft | 464 kts | 154° |
| 2026-05-04 14:10 | 34.14507 | -90.08837 | 24365 ft | 476 kts | 135° |
| 2026-05-04 14:10 | 34.12628 | -90.05514 | 24892 ft | 486 kts | 116° |
| 2026-05-04 14:11 | 34.11708 | -90.01577 | 25337 ft | 493 kts | 95° |
| 2026-05-04 14:11 | 34.12650 | -89.93389 | 26136 ft | 499 kts | 75° |
| 2026-05-04 14:11 | 34.13490 | -89.89301 | 26535 ft | 504 kts | 74° |
| 2026-05-04 14:12 | 34.14321 | -89.85174 | 27003 ft | 508 kts | 75° |
| 2026-05-04 14:12 | 34.15119 | -89.81006 | 27490 ft | 511 kts | 76° |
| 2026-05-04 14:12 | 34.16643 | -89.72558 | 28362 ft | 519 kts | 76° |
| 2026-05-04 14:13 | 34.17396 | -89.68275 | 28806 ft | 523 kts | 76° |
| 2026-05-04 14:13 | 34.18156 | -89.63965 | 29222 ft | 527 kts | 76° |
| 2026-05-04 14:13 | 34.18920 | -89.59620 | 29630 ft | 531 kts | 77° |
| 2026-05-04 14:13 | 34.19422 | -89.55181 | 30000 ft | 536 kts | 85° |
| 2026-05-04 14:14 | 34.19452 | -89.50666 | 30367 ft | 539 kts | 92° |
| 2026-05-04 14:14 | 34.18315 | -89.41747 | 31253 ft | 538 kts | 104° |
| 2026-05-04 14:14 | 34.17431 | -89.37361 | 31684 ft | 538 kts | 104° |
| 2026-05-04 14:15 | 34.15646 | -89.28588 | 32514 ft | 538 kts | 104° |
| 2026-05-04 14:15 | 34.13906 | -89.19805 | 33393 ft | 537 kts | 103° |
| 2026-05-04 14:16 | 34.12202 | -89.11043 | 34166 ft | 537 kts | 103° |
| 2026-05-04 14:16 | 34.11349 | -89.06646 | 34438 ft | 538 kts | 103° |
| 2026-05-04 14:17 | 34.09633 | -88.97837 | 34985 ft | 541 kts | 103° |
| 2026-05-04 14:17 | 34.08765 | -88.93399 | 35049 ft | 546 kts | 103° |
| 2026-05-04 14:17 | 34.07006 | -88.84453 | 35491 ft | 548 kts | 103° |
| 2026-05-04 14:18 | 34.06125 | -88.79989 | 35864 ft | 546 kts | 103° |
| 2026-05-04 14:18 | 34.04364 | -88.71094 | 36413 ft | 546 kts | 103° |
| 2026-05-04 14:19 | 34.02604 | -88.62231 | 36828 ft | 548 kts | 103° |
| 2026-05-04 14:19 | 34.01714 | -88.57763 | 36992 ft | 549 kts | 103° |
| 2026-05-04 14:19 | 34.00819 | -88.53281 | 37038 ft | 551 kts | 103° |
| 2026-05-04 14:20 | 33.99022 | -88.44308 | 37086 ft | 550 kts | 103° |
| 2026-05-04 14:20 | 33.97230 | -88.35396 | 37069 ft | 545 kts | 103° |
| 2026-05-04 14:21 | 33.94843 | -88.23580 | 37075 ft | 541 kts | 103° |
| 2026-05-04 14:21 | 33.93055 | -88.14772 | 37060 ft | 544 kts | 103° |
| 2026-05-04 14:22 | 33.91379 | -88.06540 | 37109 ft | 551 kts | 103° |
| 2026-05-04 14:22 | 33.89554 | -87.97615 | 37078 ft | 552 kts | 103° |
| 2026-05-04 14:23 | 33.86797 | -87.84199 | 37071 ft | 549 kts | 103° |
| 2026-05-04 14:24 | 33.84957 | -87.75292 | 37078 ft | 548 kts | 103° |
| 2026-05-04 14:24 | 33.83117 | -87.66411 | 37091 ft | 547 kts | 103° |
| 2026-05-04 14:25 | 33.81273 | -87.57550 | 37097 ft | 546 kts | 103° |
| 2026-05-04 14:25 | 33.78500 | -87.44282 | 37120 ft | 545 kts | 103° |
| 2026-05-04 14:26 | 33.76643 | -87.35438 | 37117 ft | 546 kts | 104° |
| 2026-05-04 14:26 | 33.74781 | -87.26598 | 37081 ft | 546 kts | 104° |
| 2026-05-04 14:27 | 33.72913 | -87.17762 | 37072 ft | 546 kts | 104° |
| 2026-05-04 14:27 | 33.71039 | -87.08924 | 37103 ft | 546 kts | 104° |
| 2026-05-04 14:28 | 33.69157 | -87.00087 | 37113 ft | 546 kts | 104° |
| 2026-05-04 14:28 | 33.67933 | -86.95796 | 37106 ft | 542 kts | 119° |
| 2026-05-04 14:28 | 33.65847 | -86.92083 | 37152 ft | 534 kts | 137° |
| 2026-05-04 14:29 | 33.60017 | -86.86948 | 37148 ft | 511 kts | 165° |
| 2026-05-04 14:29 | 33.53607 | -86.84460 | 37152 ft | 507 kts | 170° |
| 2026-05-04 14:30 | 33.46837 | -86.81833 | 37155 ft | 515 kts | 169° |
| 2026-05-04 14:31 | 33.36636 | -86.77707 | 37148 ft | 516 kts | 168° |
| 2026-05-04 14:32 | 33.23045 | -86.72194 | 37135 ft | 515 kts | 169° |
| 2026-05-04 14:32 | 33.16267 | -86.69462 | 37138 ft | 513 kts | 169° |
| 2026-05-04 14:33 | 33.09505 | -86.66741 | 37084 ft | 512 kts | 169° |
| 2026-05-04 14:33 | 33.02769 | -86.64035 | 37121 ft | 511 kts | 169° |
| 2026-05-04 14:34 | 32.96033 | -86.61335 | 37120 ft | 511 kts | 169° |
| 2026-05-04 14:34 | 32.89298 | -86.58639 | 37125 ft | 511 kts | 169° |
| 2026-05-04 14:35 | 32.82550 | -86.55941 | 37084 ft | 512 kts | 170° |
| 2026-05-04 14:35 | 32.75791 | -86.53243 | 37123 ft | 513 kts | 170° |
| 2026-05-04 14:36 | 32.69011 | -86.50543 | 37125 ft | 515 kts | 170° |
| 2026-05-04 14:36 | 32.62209 | -86.47837 | 37124 ft | 516 kts | 170° |
| 2026-05-04 14:37 | 32.55390 | -86.45127 | 37077 ft | 517 kts | 170° |
| 2026-05-04 14:37 | 32.48759 | -86.42496 | 37117 ft | 518 kts | 170° |
| 2026-05-04 14:38 | 32.42021 | -86.39828 | 37120 ft | 519 kts | 170° |
| 2026-05-04 14:38 | 32.35206 | -86.37132 | 37125 ft | 520 kts | 170° |
| 2026-05-04 14:39 | 32.28292 | -86.34400 | 37109 ft | 521 kts | 169° |
| 2026-05-04 14:39 | 32.21764 | -86.30517 | 37150 ft | 540 kts | 151° |
| 2026-05-04 14:40 | 32.16134 | -86.24502 | 37134 ft | 552 kts | 136° |
| 2026-05-04 14:40 | 32.13572 | -86.21111 | 37136 ft | 554 kts | 136° |
| 2026-05-04 14:40 | 32.08478 | -86.14283 | 37140 ft | 554 kts | 136° |
| 2026-05-04 14:41 | 32.03339 | -86.07508 | 37147 ft | 554 kts | 136° |
| 2026-05-04 14:42 | 31.92968 | -85.94111 | 37154 ft | 553 kts | 137° |
| 2026-05-04 14:42 | 31.87777 | -85.87434 | 37161 ft | 553 kts | 137° |
| 2026-05-04 14:43 | 31.82585 | -85.80759 | 37149 ft | 553 kts | 137° |
| 2026-05-04 14:43 | 31.77392 | -85.74089 | 37144 ft | 553 kts | 137° |
| 2026-05-04 14:44 | 31.72197 | -85.67431 | 37100 ft | 552 kts | 137° |
| 2026-05-04 14:44 | 31.67011 | -85.60795 | 37139 ft | 551 kts | 137° |
| 2026-05-04 14:45 | 31.61826 | -85.54174 | 37138 ft | 551 kts | 137° |
| 2026-05-04 14:45 | 31.56646 | -85.47570 | 37162 ft | 550 kts | 137° |
| 2026-05-04 14:46 | 31.51460 | -85.40970 | 37162 ft | 550 kts | 137° |
| 2026-05-04 14:46 | 31.46311 | -85.34430 | 37168 ft | 549 kts | 137° |
| 2026-05-04 14:47 | 31.41129 | -85.27859 | 37144 ft | 548 kts | 137° |
| 2026-05-04 14:47 | 31.35956 | -85.21311 | 37151 ft | 547 kts | 137° |
| 2026-05-04 14:48 | 31.30785 | -85.14776 | 37156 ft | 547 kts | 137° |
| 2026-05-04 14:48 | 31.25618 | -85.08258 | 37158 ft | 546 kts | 137° |
| 2026-05-04 14:49 | 31.20448 | -85.01748 | 37164 ft | 547 kts | 137° |
| 2026-05-04 14:49 | 31.15272 | -84.95241 | 37149 ft | 547 kts | 137° |
| 2026-05-04 14:50 | 31.10094 | -84.88742 | 37165 ft | 546 kts | 137° |
| 2026-05-04 14:50 | 31.04922 | -84.82262 | 37161 ft | 546 kts | 137° |
| 2026-05-04 14:51 | 30.99746 | -84.75789 | 37165 ft | 546 kts | 137° |
| 2026-05-04 14:51 | 30.94569 | -84.69325 | 37166 ft | 545 kts | 137° |
| 2026-05-04 14:52 | 30.89391 | -84.62871 | 37132 ft | 545 kts | 137° |
| 2026-05-04 14:52 | 30.84211 | -84.56426 | 37129 ft | 545 kts | 137° |
| 2026-05-04 14:53 | 30.79031 | -84.49992 | 37133 ft | 544 kts | 137° |
| 2026-05-04 14:53 | 30.73857 | -84.43575 | 37134 ft | 544 kts | 137° |
| 2026-05-04 14:54 | 30.68681 | -84.37168 | 37145 ft | 543 kts | 137° |
| 2026-05-04 14:54 | 30.63509 | -84.30775 | 37142 ft | 543 kts | 137° |
| 2026-05-04 14:55 | 30.58332 | -84.24388 | 37152 ft | 543 kts | 138° |
| 2026-05-04 14:55 | 30.53154 | -84.18009 | 37151 ft | 543 kts | 138° |
| 2026-05-04 14:56 | 30.47970 | -84.11635 | 37150 ft | 543 kts | 138° |
| 2026-05-04 14:56 | 30.42781 | -84.05264 | 37145 ft | 543 kts | 138° |
| 2026-05-04 14:57 | 30.37593 | -83.98904 | 37141 ft | 543 kts | 138° |
| 2026-05-04 14:57 | 30.32398 | -83.92548 | 37143 ft | 543 kts | 138° |
| 2026-05-04 14:58 | 30.27202 | -83.86200 | 37150 ft | 543 kts | 138° |
| 2026-05-04 14:58 | 30.22010 | -83.79868 | 37143 ft | 542 kts | 138° |
| 2026-05-04 14:59 | 30.16821 | -83.73548 | 37144 ft | 541 kts | 138° |
| 2026-05-04 15:00 | 30.09045 | -83.64100 | 37143 ft | 540 kts | 138° |
| 2026-05-04 15:00 | 30.03897 | -83.57857 | 37148 ft | 540 kts | 138° |
| 2026-05-04 15:01 | 29.96120 | -83.48445 | 37148 ft | 540 kts | 138° |
| 2026-05-04 15:01 | 29.90942 | -83.42191 | 37152 ft | 539 kts | 138° |
| 2026-05-04 15:02 | 29.85763 | -83.35945 | 37146 ft | 539 kts | 138° |
| 2026-05-04 15:02 | 29.80587 | -83.29713 | 37147 ft | 538 kts | 138° |
| 2026-05-04 15:03 | 29.75410 | -83.23490 | 37137 ft | 538 kts | 138° |
| 2026-05-04 15:03 | 29.70235 | -83.17278 | 37138 ft | 538 kts | 138° |
| 2026-05-04 15:04 | 29.65061 | -83.11075 | 37138 ft | 538 kts | 139° |
| 2026-05-04 15:04 | 29.59418 | -83.05615 | 37140 ft | 524 kts | 154° |
| 2026-05-04 15:05 | 29.53035 | -83.01804 | 37144 ft | 510 kts | 167° |
| 2026-05-04 15:05 | 29.46373 | -82.99030 | 37150 ft | 509 kts | 168° |
| 2026-05-04 15:06 | 29.39701 | -82.96267 | 37144 ft | 510 kts | 167° |
| 2026-05-04 15:07 | 29.29703 | -82.92044 | 37141 ft | 510 kts | 167° |
| 2026-05-04 15:07 | 29.23046 | -82.89210 | 37136 ft | 510 kts | 167° |
| 2026-05-04 15:08 | 29.17512 | -82.86858 | 37141 ft | 510 kts | 167° |
| 2026-05-04 15:08 | 29.10850 | -82.84033 | 37138 ft | 511 kts | 167° |
| 2026-05-04 15:09 | 29.04185 | -82.81213 | 37099 ft | 510 kts | 167° |
| 2026-05-04 15:09 | 28.97535 | -82.78402 | 37131 ft | 510 kts | 167° |
| 2026-05-04 15:10 | 28.87566 | -82.74196 | 37122 ft | 509 kts | 167° |
| 2026-05-04 15:11 | 28.77607 | -82.70003 | 37121 ft | 508 kts | 167° |
| 2026-05-04 15:11 | 28.70981 | -82.67217 | 37120 ft | 507 kts | 167° |
| 2026-05-04 15:12 | 28.64370 | -82.64442 | 37113 ft | 506 kts | 167° |
| 2026-05-04 15:12 | 28.57763 | -82.61673 | 37116 ft | 506 kts | 167° |
| 2026-05-04 15:13 | 28.51156 | -82.58908 | 37113 ft | 506 kts | 167° |
| 2026-05-04 15:13 | 28.44597 | -82.56166 | 37065 ft | 505 kts | 167° |
| 2026-05-04 15:14 | 28.38007 | -82.53413 | 37105 ft | 504 kts | 167° |
| 2026-05-04 15:14 | 28.31431 | -82.50672 | 37109 ft | 503 kts | 167° |
| 2026-05-04 15:15 | 28.24851 | -82.47932 | 37113 ft | 504 kts | 167° |
| 2026-05-04 15:15 | 28.18275 | -82.45198 | 37119 ft | 503 kts | 167° |
| 2026-05-04 15:16 | 28.08429 | -82.41109 | 37103 ft | 502 kts | 167° |
| 2026-05-04 15:17 | 27.98607 | -82.37038 | 37110 ft | 501 kts | 168° |
| 2026-05-04 15:17 | 27.88799 | -82.32983 | 37097 ft | 500 kts | 168° |
| 2026-05-04 15:18 | 27.82314 | -82.30305 | 37065 ft | 499 kts | 168° |
| 2026-05-04 15:19 | 27.72555 | -82.26282 | 37098 ft | 498 kts | 168° |
| 2026-05-04 15:19 | 27.62754 | -82.22250 | 37097 ft | 498 kts | 168° |
| 2026-05-04 15:20 | 27.56241 | -82.19574 | 37097 ft | 498 kts | 168° |
| 2026-05-04 15:20 | 27.49771 | -82.16920 | 37097 ft | 498 kts | 168° |
| 2026-05-04 15:21 | 27.43252 | -82.14249 | 37093 ft | 499 kts | 168° |
| 2026-05-04 15:22 | 27.33469 | -82.10246 | 37094 ft | 499 kts | 168° |
| 2026-05-04 15:22 | 27.23675 | -82.06246 | 37058 ft | 499 kts | 168° |
| 2026-05-04 15:23 | 27.17153 | -82.03587 | 37091 ft | 499 kts | 168° |
| 2026-05-04 15:23 | 27.10626 | -82.00929 | 37098 ft | 499 kts | 168° |
| 2026-05-04 15:24 | 26.97572 | -81.95623 | 37095 ft | 497 kts | 168° |
| 2026-05-04 15:25 | 26.91175 | -81.93016 | 36658 ft | 482 kts | 168° |
| 2026-05-04 15:25 | 26.88039 | -81.91742 | 36208 ft | 478 kts | 168° |
| 2026-05-04 15:26 | 26.81797 | -81.89221 | 35116 ft | 476 kts | 168° |
| 2026-05-04 15:26 | 26.78683 | -81.87964 | 34619 ft | 475 kts | 168° |
| 2026-05-04 15:26 | 26.72496 | -81.85464 | 33666 ft | 470 kts | 168° |
| 2026-05-04 15:27 | 26.69430 | -81.84224 | 33197 ft | 467 kts | 168° |
| 2026-05-04 15:27 | 26.63372 | -81.81777 | 32287 ft | 460 kts | 168° |
| 2026-05-04 15:28 | 26.57404 | -81.79372 | 31475 ft | 452 kts | 168° |
| 2026-05-04 15:28 | 26.54451 | -81.78183 | 31021 ft | 451 kts | 168° |
| 2026-05-04 15:28 | 26.48630 | -81.75740 | 30098 ft | 450 kts | 166° |
| 2026-05-04 15:29 | 26.45727 | -81.74442 | 29621 ft | 447 kts | 165° |
| 2026-05-04 15:30 | 26.34396 | -81.69376 | 28016 ft | 431 kts | 166° |
| 2026-05-04 15:30 | 26.26125 | -81.65733 | 26777 ft | 421 kts | 165° |
| 2026-05-04 15:31 | 26.20719 | -81.63354 | 26072 ft | 414 kts | 165° |
| 2026-05-04 15:31 | 26.18049 | -81.62180 | 25700 ft | 411 kts | 165° |
| 2026-05-04 15:32 | 26.10148 | -81.58709 | 24623 ft | 403 kts | 165° |
| 2026-05-04 15:32 | 26.04972 | -81.56440 | 23941 ft | 397 kts | 165° |
| 2026-05-04 15:33 | 25.99868 | -81.54205 | 23167 ft | 392 kts | 165° |
| 2026-05-04 15:34 | 25.93014 | -81.49528 | 21770 ft | 406 kts | 124° |
| 2026-05-04 15:34 | 25.91879 | -81.46656 | 21376 ft | 409 kts | 104° |
| 2026-05-04 15:34 | 25.91192 | -81.40444 | 20592 ft | 404 kts | 96° |
| 2026-05-04 15:35 | 25.90630 | -81.34266 | 19889 ft | 400 kts | 97° |
| 2026-05-04 15:35 | 25.90330 | -81.31202 | 19534 ft | 398 kts | 97° |
| 2026-05-04 15:35 | 25.90018 | -81.28138 | 19109 ft | 399 kts | 97° |
| 2026-05-04 15:36 | 25.89382 | -81.22024 | 18258 ft | 398 kts | 98° |
| 2026-05-04 15:36 | 25.89063 | -81.18978 | 17769 ft | 397 kts | 98° |
| 2026-05-04 15:36 | 25.88682 | -81.15965 | 17336 ft | 388 kts | 107° |
| 2026-05-04 15:37 | 25.87665 | -81.13332 | 17150 ft | 357 kts | 128° |
| 2026-05-04 15:37 | 25.86455 | -81.10979 | 16588 ft | 352 kts | 112° |
| 2026-05-04 15:37 | 25.86069 | -81.08296 | 15696 ft | 358 kts | 85° |
| 2026-05-04 15:37 | 25.86570 | -81.05592 | 14846 ft | 359 kts | 74° |
| 2026-05-04 15:38 | 25.87050 | -81.02866 | 14045 ft | 361 kts | 82° |
| 2026-05-04 15:38 | 25.87202 | -81.01026 | 13459 ft | 362 kts | 92° |
| 2026-05-04 15:38 | 25.86639 | -80.97391 | 12457 ft | 353 kts | 104° |
| 2026-05-04 15:38 | 25.86132 | -80.94781 | 11806 ft | 347 kts | 103° |
| 2026-05-04 15:39 | 25.85655 | -80.92176 | 11163 ft | 341 kts | 102° |
| 2026-05-04 15:39 | 25.85199 | -80.89615 | 10532 ft | 335 kts | 102° |
| 2026-05-04 15:39 | 25.84324 | -80.84632 | 9231 ft | 323 kts | 102° |
| 2026-05-04 15:40 | 25.83899 | -80.82202 | 8557 ft | 318 kts | 101° |
| 2026-05-04 15:40 | 25.83481 | -80.79809 | 7904 ft | 313 kts | 101° |
| 2026-05-04 15:40 | 25.83071 | -80.77461 | 7264 ft | 307 kts | 101° |
| 2026-05-04 15:40 | 25.82621 | -80.74888 | 6536 ft | 302 kts | 101° |
| 2026-05-04 15:41 | 25.82270 | -80.72881 | 5929 ft | 298 kts | 101° |
| 2026-05-04 15:41 | 25.81877 | -80.70639 | 5281 ft | 292 kts | 101° |
| 2026-05-04 15:41 | 25.81491 | -80.68438 | 4615 ft | 288 kts | 100° |
| 2026-05-04 15:41 | 25.81118 | -80.66319 | 4400 ft | 267 kts | 100° |
| 2026-05-04 15:42 | 25.80758 | -80.64263 | 4427 ft | 276 kts | 100° |
| 2026-05-04 15:42 | 25.80391 | -80.62167 | 4385 ft | 276 kts | 100° |
| 2026-05-04 15:42 | 25.80027 | -80.60099 | 4221 ft | 272 kts | 99° |
| 2026-05-04 15:42 | 25.79665 | -80.58043 | 3909 ft | 270 kts | 100° |
| 2026-05-04 15:43 | 25.79311 | -80.56034 | 3624 ft | 257 kts | 99° |
| 2026-05-04 15:43 | 25.78981 | -80.54177 | 3492 ft | 234 kts | 98° |
| 2026-05-04 15:43 | 25.78682 | -80.52479 | 3380 ft | 218 kts | 98° |
| 2026-05-04 15:43 | 25.78388 | -80.50809 | 3385 ft | 221 kts | 98° |
| 2026-05-04 15:44 | 25.78193 | -80.49703 | 3229 ft | 219 kts | 98° |
| 2026-05-04 15:44 | 25.77952 | -80.47572 | 2821 ft | 197 kts | 86° |
| 2026-05-04 15:44 | 25.77995 | -80.46103 | 2589 ft | 187 kts | 83° |
| 2026-05-04 15:44 | 25.78060 | -80.44674 | 2389 ft | 183 kts | 84° |
| 2026-05-04 15:45 | 25.78119 | -80.43275 | 2104 ft | 177 kts | 83° |
| 2026-05-04 15:45 | 25.78173 | -80.41967 | 1867 ft | 163 kts | 84° |
| 2026-05-04 15:45 | 25.78221 | -80.40773 | 1689 ft | 151 kts | 83° |
| 2026-05-04 15:45 | 25.78275 | -80.39573 | 1520 ft | 160 kts | 83° |
| 2026-05-04 15:46 | 25.78327 | -80.38322 | 1289 ft | 162 kts | 84° |
| 2026-05-04 15:46 | 25.78374 | -80.37115 | 1099 ft | 152 kts | 83° |
| 2026-05-04 15:46 | 25.78423 | -80.35939 | 919 ft | 154 kts | 83° |
| 2026-05-04 15:46 | 25.78460 | -80.34734 | 717 ft | 159 kts | 82° |
| 2026-05-04 15:47 | 25.78543 | -80.33551 | 486 ft | 148 kts | 82° |
| 2026-05-04 15:47 | 25.78583 | -80.32400 | 317 ft | 156 kts | 83° |
| 2026-05-04 15:47 | 25.78626 | -80.31189 | 89 ft | 157 kts | 85° |
| 2026-05-04 15:47 | 25.78685 | -80.30014 | 18 ft | 143 kts | 87° |
| 2026-05-04 15:48 | 25.78705 | -80.29166 | 20 ft | 67 kts | 87° |
| 2026-05-04 15:48 | 25.78727 | -80.28800 | 20 ft | 34 kts | 85° |
| 2026-05-04 15:48 | 25.78793 | -80.28470 | 19 ft | 0 kts | 51° |
| 2026-05-04 15:49 | 25.80520 | -80.29313 | 19 ft | 0 kts | 357° |